sensor_id;sensor_type;location;lat;lon;timestamp;temperature;humidity
30308;DHT22;17114;52.314;8.910;2023-03-01T00:00:04;-3.50;99.90
30308;DHT22;17114;52.314;8.910;2023-03-01T00:02:31;-3.50;99.90
30308;DHT22;17114;52.314;8.910;2023-03-01T00:04:58;-3.60;99.90
30308;DHT22;17114;52.314;8.910;2023-03-01T00:07:25;-3.60;99.90
30308;DHT22;17114;52.314;8.910;2023-03-01T00:09:52;-3.60;99.90
30308;DHT22;17114;52.314;8.910;2023-03-01T00:12:19;-3.70;99.90
30308;DHT22;17114;52.314;8.910;2023-03-01T00:14:46;-3.70;99.90
30308;DHT22;17114;52.314;8.910;2023-03-01T00:17:13;-3.70;99.90
30308;DHT22;17114;52.314;8.910;2023-03-01T00:19:40;-3.60;99.90
30308;DHT22;17114;52.314;8.910;2023-03-01T00:22:07;-3.60;99.90
30308;DHT22;17114;52.314;8.910;2023-03-01T00:24:34;-3.60;99.90
30308;DHT22;17114;52.314;8.910;2023-03-01T00:27:01;-3.70;99.90
30308;DHT22;17114;52.314;8.910;2023-03-01T00:29:28;-3.80;99.90
30308;DHT22;17114;52.314;8.910;2023-03-01T00:31:55;-3.80;99.90
30308;DHT22;17114;52.314;8.910;2023-03-01T00:34:21;-3.80;99.90
30308;DHT22;17114;52.314;8.910;2023-03-01T00:36:48;-3.70;99.90
30308;DHT22;17114;52.314;8.910;2023-03-01T00:39:15;-4.00;99.90
30308;DHT22;17114;52.314;8.910;2023-03-01T00:41:42;-3.90;99.90
30308;DHT22;17114;52.314;8.910;2023-03-01T00:44:10;-4.00;99.90
30308;DHT22;17114;52.314;8.910;2023-03-01T00:46:37;-3.90;99.90
30308;DHT22;17114;52.314;8.910;2023-03-01T00:49:04;-4.00;99.90
30308;DHT22;17114;52.314;8.910;2023-03-01T00:51:32;-4.00;99.90
30308;DHT22;17114;52.314;8.910;2023-03-01T00:54:01;-4.00;99.90
30308;DHT22;17114;52.314;8.910;2023-03-01T00:56:29;-4.00;99.90
30308;DHT22;17114;52.314;8.910;2023-03-01T00:58:57;-4.00;99.90
30308;DHT22;17114;52.314;8.910;2023-03-01T01:01:30;-3.90;99.90
30308;DHT22;17114;52.314;8.910;2023-03-01T01:04:00;-4.00;99.90
30308;DHT22;17114;52.314;8.910;2023-03-01T01:06:30;-4.00;99.90
30308;DHT22;17114;52.314;8.910;2023-03-01T01:08:58;-4.10;99.90
30308;DHT22;17114;52.314;8.910;2023-03-01T01:11:26;-4.10;99.90
30308;DHT22;17114;52.314;8.910;2023-03-01T01:13:54;-4.10;99.90
30308;DHT22;17114;52.314;8.910;2023-03-01T01:16:23;-4.10;99.90
30308;DHT22;17114;52.314;8.910;2023-03-01T01:18:51;-4.20;99.90
30308;DHT22;17114;52.314;8.910;2023-03-01T01:21:20;-4.10;99.90
30308;DHT22;17114;52.314;8.910;2023-03-01T01:23:47;-4.20;99.90
30308;DHT22;17114;52.314;8.910;2023-03-01T01:26:18;-4.20;99.90
30308;DHT22;17114;52.314;8.910;2023-03-01T01:28:45;-4.20;99.90
30308;DHT22;17114;52.314;8.910;2023-03-01T01:31:13;-4.20;99.90
30308;DHT22;17114;52.314;8.910;2023-03-01T01:33:39;-4.20;99.90
30308;DHT22;17114;52.314;8.910;2023-03-01T01:36:07;-4.30;99.90
30308;DHT22;17114;52.314;8.910;2023-03-01T01:38:35;-4.30;99.90
30308;DHT22;17114;52.314;8.910;2023-03-01T01:41:03;-4.30;99.90
30308;DHT22;17114;52.314;8.910;2023-03-01T01:43:34;-4.30;99.90
30308;DHT22;17114;52.314;8.910;2023-03-01T01:46:10;-4.30;99.90
30308;DHT22;17114;52.314;8.910;2023-03-01T01:48:49;-4.40;99.90
30308;DHT22;17114;52.314;8.910;2023-03-01T01:51:23;-4.40;99.90
30308;DHT22;17114;52.314;8.910;2023-03-01T01:53:55;-4.40;99.90
30308;DHT22;17114;52.314;8.910;2023-03-01T01:56:26;-4.40;99.90
30308;DHT22;17114;52.314;8.910;2023-03-01T01:58:56;-4.40;99.90
30308;DHT22;17114;52.314;8.910;2023-03-01T02:01:23;-4.40;99.90
30308;DHT22;17114;52.314;8.910;2023-03-01T02:03:50;-4.50;99.90
30308;DHT22;17114;52.314;8.910;2023-03-01T02:08:47;-4.40;99.90
30308;DHT22;17114;52.314;8.910;2023-03-01T02:11:15;-4.50;99.90
30308;DHT22;17114;52.314;8.910;2023-03-01T02:13:43;-4.50;99.90
30308;DHT22;17114;52.314;8.910;2023-03-01T02:16:13;-4.50;99.90
30308;DHT22;17114;52.314;8.910;2023-03-01T02:18:42;-4.50;99.90
30308;DHT22;17114;52.314;8.910;2023-03-01T02:21:21;-4.50;99.90
30308;DHT22;17114;52.314;8.910;2023-03-01T02:23:53;-4.60;99.90
30308;DHT22;17114;52.314;8.910;2023-03-01T02:26:33;-4.60;99.90
30308;DHT22;17114;52.314;8.910;2023-03-01T02:29:03;-4.70;99.90
30308;DHT22;17114;52.314;8.910;2023-03-01T02:31:32;-4.70;99.90
30308;DHT22;17114;52.314;8.910;2023-03-01T02:34:21;-4.70;99.90
30308;DHT22;17114;52.314;8.910;2023-03-01T02:36:56;-4.70;99.90
30308;DHT22;17114;52.314;8.910;2023-03-01T02:39:30;-4.70;99.90
30308;DHT22;17114;52.314;8.910;2023-03-01T02:41:59;-4.70;99.90
30308;DHT22;17114;52.314;8.910;2023-03-01T02:44:27;-4.70;99.90
30308;DHT22;17114;52.314;8.910;2023-03-01T02:46:56;-4.80;99.90
30308;DHT22;17114;52.314;8.910;2023-03-01T02:49:27;-4.80;99.90
30308;DHT22;17114;52.314;8.910;2023-03-01T02:52:05;-4.80;99.90
30308;DHT22;17114;52.314;8.910;2023-03-01T02:54:40;-4.80;99.90
30308;DHT22;17114;52.314;8.910;2023-03-01T02:57:08;-4.80;99.90
30308;DHT22;17114;52.314;8.910;2023-03-01T02:59:37;-4.90;99.90
30308;DHT22;17114;52.314;8.910;2023-03-01T03:02:24;-4.90;99.90
30308;DHT22;17114;52.314;8.910;2023-03-01T03:05:12;-4.90;99.90
30308;DHT22;17114;52.314;8.910;2023-03-01T03:07:41;-4.90;99.90
30308;DHT22;17114;52.314;8.910;2023-03-01T03:10:12;-4.90;99.90
30308;DHT22;17114;52.314;8.910;2023-03-01T03:12:40;-4.90;99.90
30308;DHT22;17114;52.314;8.910;2023-03-01T03:15:09;-4.90;99.90
30308;DHT22;17114;52.314;8.910;2023-03-01T03:17:37;-5.00;99.90
30308;DHT22;17114;52.314;8.910;2023-03-01T03:20:06;-5.00;99.90
30308;DHT22;17114;52.314;8.910;2023-03-01T03:22:40;-5.00;99.90
30308;DHT22;17114;52.314;8.910;2023-03-01T03:25:08;-5.00;99.90
30308;DHT22;17114;52.314;8.910;2023-03-01T03:27:42;-5.00;99.90
30308;DHT22;17114;52.314;8.910;2023-03-01T03:30:14;-4.90;99.90
30308;DHT22;17114;52.314;8.910;2023-03-01T03:32:42;-5.00;99.90
30308;DHT22;17114;52.314;8.910;2023-03-01T03:37:51;-5.00;99.90
30308;DHT22;17114;52.314;8.910;2023-03-01T03:40:40;-5.10;99.90
30308;DHT22;17114;52.314;8.910;2023-03-01T03:43:10;-5.10;99.90
30308;DHT22;17114;52.314;8.910;2023-03-01T03:45:37;-5.10;99.90
30308;DHT22;17114;52.314;8.910;2023-03-01T03:48:07;-5.10;99.90
30308;DHT22;17114;52.314;8.910;2023-03-01T03:50:34;-5.10;99.90
30308;DHT22;17114;52.314;8.910;2023-03-01T03:53:03;-5.10;99.90
30308;DHT22;17114;52.314;8.910;2023-03-01T03:55:31;-5.20;99.90
30308;DHT22;17114;52.314;8.910;2023-03-01T03:58:01;-5.20;99.90
30308;DHT22;17114;52.314;8.910;2023-03-01T04:00:39;-5.20;99.90
30308;DHT22;17114;52.314;8.910;2023-03-01T04:03:07;-5.20;99.90
30308;DHT22;17114;52.314;8.910;2023-03-01T04:05:34;-5.30;99.90
30308;DHT22;17114;52.314;8.910;2023-03-01T04:08:02;-5.30;99.90
30308;DHT22;17114;52.314;8.910;2023-03-01T04:10:30;-5.30;99.90
30308;DHT22;17114;52.314;8.910;2023-03-01T04:12:58;-5.30;99.90
30308;DHT22;17114;52.314;8.910;2023-03-01T04:15:26;-5.40;99.90
30308;DHT22;17114;52.314;8.910;2023-03-01T04:17:54;-5.40;99.90
30308;DHT22;17114;52.314;8.910;2023-03-01T04:20:24;-5.40;99.90
30308;DHT22;17114;52.314;8.910;2023-03-01T04:22:55;-5.40;99.90
30308;DHT22;17114;52.314;8.910;2023-03-01T04:25:24;-5.40;99.90
30308;DHT22;17114;52.314;8.910;2023-03-01T04:27:51;-5.40;99.90
30308;DHT22;17114;52.314;8.910;2023-03-01T04:30:18;-5.40;99.90
30308;DHT22;17114;52.314;8.910;2023-03-01T04:32:45;-5.40;99.90
30308;DHT22;17114;52.314;8.910;2023-03-01T04:35:12;-5.50;99.90
30308;DHT22;17114;52.314;8.910;2023-03-01T04:37:38;-5.50;99.90
30308;DHT22;17114;52.314;8.910;2023-03-01T04:40:06;-5.50;99.90
30308;DHT22;17114;52.314;8.910;2023-03-01T04:42:42;-5.50;99.90
30308;DHT22;17114;52.314;8.910;2023-03-01T04:45:09;-5.60;99.90
30308;DHT22;17114;52.314;8.910;2023-03-01T04:47:41;-5.60;99.90
30308;DHT22;17114;52.314;8.910;2023-03-01T04:50:12;-5.60;99.90
30308;DHT22;17114;52.314;8.910;2023-03-01T04:52:40;-5.60;99.90
30308;DHT22;17114;52.314;8.910;2023-03-01T04:55:07;-5.50;99.90
30308;DHT22;17114;52.314;8.910;2023-03-01T04:57:34;-5.60;99.90
30308;DHT22;17114;52.314;8.910;2023-03-01T05:00:01;-5.60;99.90
30308;DHT22;17114;52.314;8.910;2023-03-01T05:02:50;-5.60;99.90
30308;DHT22;17114;52.314;8.910;2023-03-01T05:05:25;-5.60;99.90
30308;DHT22;17114;52.314;8.910;2023-03-01T05:07:54;-5.60;99.90
30308;DHT22;17114;52.314;8.910;2023-03-01T05:10:21;-5.50;99.90
30308;DHT22;17114;52.314;8.910;2023-03-01T05:12:48;-5.60;99.90
30308;DHT22;17114;52.314;8.910;2023-03-01T05:15:15;-5.70;99.90
30308;DHT22;17114;52.314;8.910;2023-03-01T05:17:42;-5.60;99.90
30308;DHT22;17114;52.314;8.910;2023-03-01T05:20:10;-5.60;99.90
30308;DHT22;17114;52.314;8.910;2023-03-01T05:22:37;-5.60;99.90
30308;DHT22;17114;52.314;8.910;2023-03-01T05:25:05;-5.60;99.90
30308;DHT22;17114;52.314;8.910;2023-03-01T05:27:34;-5.70;99.90
30308;DHT22;17114;52.314;8.910;2023-03-01T05:30:03;-5.70;99.90
30308;DHT22;17114;52.314;8.910;2023-03-01T05:32:48;-5.70;99.90
30308;DHT22;17114;52.314;8.910;2023-03-01T05:35:17;-5.70;99.90
30308;DHT22;17114;52.314;8.910;2023-03-01T05:37:48;-5.70;99.90
30308;DHT22;17114;52.314;8.910;2023-03-01T05:40:21;-5.70;99.90
30308;DHT22;17114;52.314;8.910;2023-03-01T05:42:52;-5.70;99.90
30308;DHT22;17114;52.314;8.910;2023-03-01T05:45:20;-5.70;99.90
30308;DHT22;17114;52.314;8.910;2023-03-01T05:47:48;-5.70;99.90
30308;DHT22;17114;52.314;8.910;2023-03-01T05:52:50;-5.70;99.90
30308;DHT22;17114;52.314;8.910;2023-03-01T05:55:20;-5.70;99.90
30308;DHT22;17114;52.314;8.910;2023-03-01T05:57:48;-5.70;99.90
30308;DHT22;17114;52.314;8.910;2023-03-01T06:00:18;-5.80;99.90
30308;DHT22;17114;52.314;8.910;2023-03-01T06:02:45;-5.80;99.90
30308;DHT22;17114;52.314;8.910;2023-03-01T06:05:13;-5.80;99.90
30308;DHT22;17114;52.314;8.910;2023-03-01T06:07:41;-5.80;99.90
30308;DHT22;17114;52.314;8.910;2023-03-01T06:10:09;-5.70;99.90
30308;DHT22;17114;52.314;8.910;2023-03-01T06:12:38;-5.70;99.90
30308;DHT22;17114;52.314;8.910;2023-03-01T06:15:06;-5.80;99.90
30308;DHT22;17114;52.314;8.910;2023-03-01T06:17:37;-5.80;99.90
30308;DHT22;17114;52.314;8.910;2023-03-01T06:20:24;-5.80;99.90
30308;DHT22;17114;52.314;8.910;2023-03-01T06:22:51;-5.80;99.90
30308;DHT22;17114;52.314;8.910;2023-03-01T06:25:21;-5.60;99.90
30308;DHT22;17114;52.314;8.910;2023-03-01T06:27:48;-5.70;99.90
30308;DHT22;17114;52.314;8.910;2023-03-01T06:30:17;-5.70;99.90
30308;DHT22;17114;52.314;8.910;2023-03-01T06:32:44;-5.70;99.90
30308;DHT22;17114;52.314;8.910;2023-03-01T06:35:13;-5.70;99.90
30308;DHT22;17114;52.314;8.910;2023-03-01T06:37:40;-5.60;99.90
30308;DHT22;17114;52.314;8.910;2023-03-01T06:40:09;-5.60;99.90
30308;DHT22;17114;52.314;8.910;2023-03-01T06:42:39;-5.50;99.90
30308;DHT22;17114;52.314;8.910;2023-03-01T06:45:08;-5.40;99.90
30308;DHT22;17114;52.314;8.910;2023-03-01T06:47:35;-5.40;99.90
30308;DHT22;17114;52.314;8.910;2023-03-01T06:50:03;-5.30;99.90
30308;DHT22;17114;52.314;8.910;2023-03-01T06:52:30;-5.20;99.90
30308;DHT22;17114;52.314;8.910;2023-03-01T06:54:58;-5.20;99.90
30308;DHT22;17114;52.314;8.910;2023-03-01T06:57:25;-5.10;99.90
30308;DHT22;17114;52.314;8.910;2023-03-01T06:59:52;-5.00;99.90
30308;DHT22;17114;52.314;8.910;2023-03-01T07:02:26;-5.00;99.90
30308;DHT22;17114;52.314;8.910;2023-03-01T07:04:53;-4.90;99.90
30308;DHT22;17114;52.314;8.910;2023-03-01T07:07:20;-4.80;99.90
30308;DHT22;17114;52.314;8.910;2023-03-01T07:09:49;-4.50;99.90
30308;DHT22;17114;52.314;8.910;2023-03-01T07:12:16;-4.00;99.90
30308;DHT22;17114;52.314;8.910;2023-03-01T07:14:44;-3.50;99.90
30308;DHT22;17114;52.314;8.910;2023-03-01T07:17:10;-3.10;99.90
30308;DHT22;17114;52.314;8.910;2023-03-01T07:19:37;-2.70;99.90
30308;DHT22;17114;52.314;8.910;2023-03-01T07:22:05;-2.10;99.90
30308;DHT22;17114;52.314;8.910;2023-03-01T07:24:34;-1.40;99.90
30308;DHT22;17114;52.314;8.910;2023-03-01T07:27:01;-0.60;99.90
30308;DHT22;17114;52.314;8.910;2023-03-01T07:29:29;0.10;99.90
30308;DHT22;17114;52.314;8.910;2023-03-01T07:31:56;0.60;99.90
30308;DHT22;17114;52.314;8.910;2023-03-01T07:34:24;1.20;99.90
30308;DHT22;17114;52.314;8.910;2023-03-01T07:36:51;1.80;99.90
30308;DHT22;17114;52.314;8.910;2023-03-01T07:39:19;2.30;99.90
30308;DHT22;17114;52.314;8.910;2023-03-01T07:41:48;2.60;99.90
30308;DHT22;17114;52.314;8.910;2023-03-01T07:44:15;2.90;99.90
30308;DHT22;17114;52.314;8.910;2023-03-01T07:46:44;3.20;99.90
30308;DHT22;17114;52.314;8.910;2023-03-01T07:49:11;3.70;99.90
30308;DHT22;17114;52.314;8.910;2023-03-01T07:51:38;4.00;99.90
30308;DHT22;17114;52.314;8.910;2023-03-01T07:54:05;4.20;99.90
30308;DHT22;17114;52.314;8.910;2023-03-01T07:56:35;4.40;99.90
30308;DHT22;17114;52.314;8.910;2023-03-01T07:59:04;4.60;99.90
30308;DHT22;17114;52.314;8.910;2023-03-01T08:01:31;5.00;99.90
30308;DHT22;17114;52.314;8.910;2023-03-01T08:03:58;4.80;99.90
30308;DHT22;17114;52.314;8.910;2023-03-01T08:06:25;4.90;99.90
30308;DHT22;17114;52.314;8.910;2023-03-01T08:08:52;5.10;99.90
30308;DHT22;17114;52.314;8.910;2023-03-01T08:11:21;5.10;99.90
30308;DHT22;17114;52.314;8.910;2023-03-01T08:13:49;5.50;99.90
30308;DHT22;17114;52.314;8.910;2023-03-01T08:16:19;5.50;99.90
30308;DHT22;17114;52.314;8.910;2023-03-01T08:18:47;6.00;99.90
30308;DHT22;17114;52.314;8.910;2023-03-01T08:21:16;6.50;99.90
30308;DHT22;17114;52.314;8.910;2023-03-01T08:23:43;6.30;99.90
30308;DHT22;17114;52.314;8.910;2023-03-01T08:26:16;6.00;99.90
30308;DHT22;17114;52.314;8.910;2023-03-01T08:28:43;6.30;99.90
30308;DHT22;17114;52.314;8.910;2023-03-01T08:33:59;6.20;99.90
30308;DHT22;17114;52.314;8.910;2023-03-01T08:36:32;6.40;99.90
30308;DHT22;17114;52.314;8.910;2023-03-01T08:39:00;6.50;99.90
30308;DHT22;17114;52.314;8.910;2023-03-01T08:41:27;6.40;99.90
30308;DHT22;17114;52.314;8.910;2023-03-01T08:43:54;6.40;99.90
30308;DHT22;17114;52.314;8.910;2023-03-01T08:46:36;6.40;99.90
30308;DHT22;17114;52.314;8.910;2023-03-01T08:49:07;6.80;99.90
30308;DHT22;17114;52.314;8.910;2023-03-01T08:51:35;6.90;99.90
30308;DHT22;17114;52.314;8.910;2023-03-01T08:54:09;6.80;99.90
30308;DHT22;17114;52.314;8.910;2023-03-01T08:56:37;6.80;99.90
30308;DHT22;17114;52.314;8.910;2023-03-01T08:59:04;7.00;99.90
30308;DHT22;17114;52.314;8.910;2023-03-01T09:01:31;7.00;99.90
30308;DHT22;17114;52.314;8.910;2023-03-01T09:03:58;7.10;99.90
30308;DHT22;17114;52.314;8.910;2023-03-01T09:06:25;7.00;99.90
30308;DHT22;17114;52.314;8.910;2023-03-01T09:08:53;7.20;99.90
30308;DHT22;17114;52.314;8.910;2023-03-01T09:11:22;7.30;99.90
30308;DHT22;17114;52.314;8.910;2023-03-01T09:13:49;7.50;99.90
30308;DHT22;17114;52.314;8.910;2023-03-01T09:16:18;7.60;99.90
30308;DHT22;17114;52.314;8.910;2023-03-01T09:18:49;7.70;99.90
30308;DHT22;17114;52.314;8.910;2023-03-01T09:21:18;7.80;99.90
30308;DHT22;17114;52.314;8.910;2023-03-01T09:24:03;7.80;99.90
30308;DHT22;17114;52.314;8.910;2023-03-01T09:26:30;8.00;99.90
30308;DHT22;17114;52.314;8.910;2023-03-01T09:28:57;8.20;99.90
30308;DHT22;17114;52.314;8.910;2023-03-01T09:31:24;8.40;99.90
30308;DHT22;17114;52.314;8.910;2023-03-01T09:33:53;8.30;99.90
30308;DHT22;17114;52.314;8.910;2023-03-01T09:36:23;8.50;99.90
30308;DHT22;17114;52.314;8.910;2023-03-01T09:38:51;8.70;99.90
30308;DHT22;17114;52.314;8.910;2023-03-01T09:43:52;9.10;99.90
30308;DHT22;17114;52.314;8.910;2023-03-01T09:46:23;9.30;99.90
30308;DHT22;17114;52.314;8.910;2023-03-01T09:48:56;9.50;99.90
30308;DHT22;17114;52.314;8.910;2023-03-01T09:51:30;9.50;99.90
30308;DHT22;17114;52.314;8.910;2023-03-01T09:53:58;9.50;99.90
30308;DHT22;17114;52.314;8.910;2023-03-01T09:56:33;9.50;99.90
30308;DHT22;17114;52.314;8.910;2023-03-01T09:59:17;9.60;99.90
30308;DHT22;17114;52.314;8.910;2023-03-01T10:02:04;9.40;99.90
30308;DHT22;17114;52.314;8.910;2023-03-01T10:04:50;9.00;99.90
30308;DHT22;17114;52.314;8.910;2023-03-01T10:09:48;9.10;99.90
30308;DHT22;17114;52.314;8.910;2023-03-01T10:12:25;9.10;99.90
30308;DHT22;17114;52.314;8.910;2023-03-01T10:15:14;9.20;99.90
30308;DHT22;17114;52.314;8.910;2023-03-01T10:17:50;9.20;99.90
30308;DHT22;17114;52.314;8.910;2023-03-01T10:20:28;8.70;99.90
30308;DHT22;17114;52.314;8.910;2023-03-01T10:22:56;8.50;99.90
30308;DHT22;17114;52.314;8.910;2023-03-01T10:25:39;8.50;99.90
30308;DHT22;17114;52.314;8.910;2023-03-01T10:28:19;8.70;99.90
30308;DHT22;17114;52.314;8.910;2023-03-01T10:30:49;8.60;99.90
30308;DHT22;17114;52.314;8.910;2023-03-01T10:33:35;8.30;99.90
30308;DHT22;17114;52.314;8.910;2023-03-01T10:36:04;8.40;99.90
30308;DHT22;17114;52.314;8.910;2023-03-01T10:38:56;8.40;99.90
30308;DHT22;17114;52.314;8.910;2023-03-01T10:41:26;8.20;99.90
30308;DHT22;17114;52.314;8.910;2023-03-01T10:43:56;8.30;99.90
30308;DHT22;17114;52.314;8.910;2023-03-01T10:46:35;8.20;99.90
30308;DHT22;17114;52.314;8.910;2023-03-01T10:49:07;8.00;99.90
30308;DHT22;17114;52.314;8.910;2023-03-01T10:51:40;7.90;99.90
30308;DHT22;17114;52.314;8.910;2023-03-01T10:54:29;7.90;99.90
30308;DHT22;17114;52.314;8.910;2023-03-01T10:56:58;8.20;99.90
30308;DHT22;17114;52.314;8.910;2023-03-01T11:07:29;8.80;99.90
30308;DHT22;17114;52.314;8.910;2023-03-01T11:09:56;8.90;99.90
30308;DHT22;17114;52.314;8.910;2023-03-01T11:12:24;9.00;99.90
30308;DHT22;17114;52.314;8.910;2023-03-01T11:14:54;8.70;99.90
30308;DHT22;17114;52.314;8.910;2023-03-01T11:17:29;8.70;99.90
30308;DHT22;17114;52.314;8.910;2023-03-01T11:23:05;8.40;99.90
30308;DHT22;17114;52.314;8.910;2023-03-01T11:25:43;8.30;99.90
30308;DHT22;17114;52.314;8.910;2023-03-01T11:28:15;8.40;99.90
30308;DHT22;17114;52.314;8.910;2023-03-01T11:33:56;8.10;99.90
30308;DHT22;17114;52.314;8.910;2023-03-01T11:36:35;7.90;99.90
30308;DHT22;17114;52.314;8.910;2023-03-01T11:41:48;8.10;99.90
30308;DHT22;17114;52.314;8.910;2023-03-01T11:44:28;8.30;99.90
30308;DHT22;17114;52.314;8.910;2023-03-01T11:55:31;8.00;99.90
30308;DHT22;17114;52.314;8.910;2023-03-01T12:01:27;8.10;99.90
30308;DHT22;17114;52.314;8.910;2023-03-01T12:09:11;8.10;99.90
30308;DHT22;17114;52.314;8.910;2023-03-01T12:17:07;8.50;99.90
30308;DHT22;17114;52.314;8.910;2023-03-01T12:22:39;8.70;99.90
30308;DHT22;17114;52.314;8.910;2023-03-01T12:25:34;8.80;99.90
30308;DHT22;17114;52.314;8.910;2023-03-01T12:28:20;8.60;99.90
30308;DHT22;17114;52.314;8.910;2023-03-01T12:41:29;8.50;99.90
30308;DHT22;17114;52.314;8.910;2023-03-01T12:44:28;8.50;99.90
30308;DHT22;17114;52.314;8.910;2023-03-01T12:47:11;8.50;99.90
30308;DHT22;17114;52.314;8.910;2023-03-01T12:49:46;8.50;99.90
30308;DHT22;17114;52.314;8.910;2023-03-01T12:52:42;8.30;99.90
30308;DHT22;17114;52.314;8.910;2023-03-01T12:55:37;8.40;99.90
30308;DHT22;17114;52.314;8.910;2023-03-01T12:58:24;8.30;99.90
30308;DHT22;17114;52.314;8.910;2023-03-01T13:07:30;8.50;99.90
30308;DHT22;17114;52.314;8.910;2023-03-01T13:10:19;8.30;99.90
30308;DHT22;17114;52.314;8.910;2023-03-01T13:15:36;8.10;99.90
30308;DHT22;17114;52.314;8.910;2023-03-01T13:20:48;8.00;99.90
30308;DHT22;17114;52.314;8.910;2023-03-01T13:44:24;7.20;99.90
30308;DHT22;17114;52.314;8.910;2023-03-01T13:47:15;7.10;99.90
30308;DHT22;17114;52.314;8.910;2023-03-01T13:49:58;7.10;99.90
30308;DHT22;17114;52.314;8.910;2023-03-01T13:52:48;7.00;99.90
30308;DHT22;17114;52.314;8.910;2023-03-01T13:55:26;7.00;99.90
30308;DHT22;17114;52.314;8.910;2023-03-01T13:57:56;6.80;99.90
30308;DHT22;17114;52.314;8.910;2023-03-01T14:00:37;7.00;99.90
30308;DHT22;17114;52.314;8.910;2023-03-01T14:03:18;7.00;99.90
30308;DHT22;17114;52.314;8.910;2023-03-01T14:06:12;6.90;99.90
30308;DHT22;17114;52.314;8.910;2023-03-01T14:08:45;6.90;99.90
30308;DHT22;17114;52.314;8.910;2023-03-01T14:11:42;6.90;99.90
30308;DHT22;17114;52.314;8.910;2023-03-01T14:17:13;6.80;99.90
30308;DHT22;17114;52.314;8.910;2023-03-01T14:19:45;6.80;99.90
30308;DHT22;17114;52.314;8.910;2023-03-01T14:22:25;6.80;99.90
30308;DHT22;17114;52.314;8.910;2023-03-01T14:25:00;6.70;99.90
30308;DHT22;17114;52.314;8.910;2023-03-01T14:27:37;6.70;99.90
30308;DHT22;17114;52.314;8.910;2023-03-01T14:30:20;6.70;99.90
30308;DHT22;17114;52.314;8.910;2023-03-01T14:33:00;6.70;99.90
30308;DHT22;17114;52.314;8.910;2023-03-01T14:35:30;6.60;99.90
30308;DHT22;17114;52.314;8.910;2023-03-01T14:37:58;6.80;99.90
30308;DHT22;17114;52.314;8.910;2023-03-01T14:40:27;6.70;99.90
30308;DHT22;17114;52.314;8.910;2023-03-01T14:42:57;6.60;99.90
30308;DHT22;17114;52.314;8.910;2023-03-01T14:45:27;6.60;99.90
30308;DHT22;17114;52.314;8.910;2023-03-01T14:47:55;6.60;99.90
30308;DHT22;17114;52.314;8.910;2023-03-01T14:50:27;6.60;99.90
30308;DHT22;17114;52.314;8.910;2023-03-01T14:52:59;6.60;99.90
30308;DHT22;17114;52.314;8.910;2023-03-01T14:55:38;6.70;99.90
30308;DHT22;17114;52.314;8.910;2023-03-01T14:58:16;6.60;99.90
30308;DHT22;17114;52.314;8.910;2023-03-01T15:01:04;6.50;99.90
30308;DHT22;17114;52.314;8.910;2023-03-01T15:03:49;6.60;99.90
30308;DHT22;17114;52.314;8.910;2023-03-01T15:06:20;6.60;99.90
30308;DHT22;17114;52.314;8.910;2023-03-01T15:08:54;6.60;99.90
30308;DHT22;17114;52.314;8.910;2023-03-01T15:11:28;6.50;99.90
30308;DHT22;17114;52.314;8.910;2023-03-01T15:13:55;6.60;99.90
30308;DHT22;17114;52.314;8.910;2023-03-01T15:16:33;6.60;99.90
30308;DHT22;17114;52.314;8.910;2023-03-01T15:19:02;6.50;99.90
30308;DHT22;17114;52.314;8.910;2023-03-01T15:21:35;6.50;99.90
30308;DHT22;17114;52.314;8.910;2023-03-01T15:29:29;6.50;99.90
30308;DHT22;17114;52.314;8.910;2023-03-01T15:34:32;6.50;99.90
30308;DHT22;17114;52.314;8.910;2023-03-01T15:37:01;6.40;99.90
30308;DHT22;17114;52.314;8.910;2023-03-01T15:39:38;6.40;99.90
30308;DHT22;17114;52.314;8.910;2023-03-01T15:42:09;6.30;99.90
30308;DHT22;17114;52.314;8.910;2023-03-01T15:44:39;6.30;99.90
30308;DHT22;17114;52.314;8.910;2023-03-01T15:47:48;6.30;99.90
30308;DHT22;17114;52.314;8.910;2023-03-01T15:50:22;6.30;99.90
30308;DHT22;17114;52.314;8.910;2023-03-01T15:52:51;6.20;99.90
30308;DHT22;17114;52.314;8.910;2023-03-01T15:55:26;6.20;99.90
30308;DHT22;17114;52.314;8.910;2023-03-01T15:58:18;6.20;99.90
30308;DHT22;17114;52.314;8.910;2023-03-01T16:00:46;6.20;99.90
30308;DHT22;17114;52.314;8.910;2023-03-01T16:03:26;6.20;99.90
30308;DHT22;17114;52.314;8.910;2023-03-01T16:05:53;6.10;99.90
30308;DHT22;17114;52.314;8.910;2023-03-01T16:08:20;6.10;99.90
30308;DHT22;17114;52.314;8.910;2023-03-01T16:10:47;6.10;99.90
30308;DHT22;17114;52.314;8.910;2023-03-01T16:13:16;6.00;99.90
30308;DHT22;17114;52.314;8.910;2023-03-01T16:15:43;6.00;99.90
30308;DHT22;17114;52.314;8.910;2023-03-01T16:18:10;5.90;99.90
30308;DHT22;17114;52.314;8.910;2023-03-01T16:20:39;5.80;99.90
30308;DHT22;17114;52.314;8.910;2023-03-01T16:23:07;5.80;99.90
30308;DHT22;17114;52.314;8.910;2023-03-01T16:25:35;5.90;99.90
30308;DHT22;17114;52.314;8.910;2023-03-01T16:28:02;5.80;99.90
30308;DHT22;17114;52.314;8.910;2023-03-01T16:30:39;5.70;99.90
30308;DHT22;17114;52.314;8.910;2023-03-01T16:33:07;5.70;99.90
30308;DHT22;17114;52.314;8.910;2023-03-01T16:35:50;5.70;99.90
30308;DHT22;17114;52.314;8.910;2023-03-01T16:38:17;5.60;99.90
30308;DHT22;17114;52.314;8.910;2023-03-01T16:40:49;5.50;99.90
30308;DHT22;17114;52.314;8.910;2023-03-01T16:43:16;5.50;99.90
30308;DHT22;17114;52.314;8.910;2023-03-01T16:45:43;5.30;99.90
30308;DHT22;17114;52.314;8.910;2023-03-01T16:48:12;5.50;99.90
30308;DHT22;17114;52.314;8.910;2023-03-01T16:50:39;5.30;99.90
30308;DHT22;17114;52.314;8.910;2023-03-01T16:53:06;5.20;99.90
30308;DHT22;17114;52.314;8.910;2023-03-01T16:55:33;5.10;99.90
30308;DHT22;17114;52.314;8.910;2023-03-01T16:58:00;5.10;99.90
30308;DHT22;17114;52.314;8.910;2023-03-01T17:00:27;5.00;99.90
30308;DHT22;17114;52.314;8.910;2023-03-01T17:02:54;5.10;99.90
30308;DHT22;17114;52.314;8.910;2023-03-01T17:05:22;4.90;99.90
30308;DHT22;17114;52.314;8.910;2023-03-01T17:07:51;5.00;99.90
30308;DHT22;17114;52.314;8.910;2023-03-01T17:10:18;4.80;99.90
30308;DHT22;17114;52.314;8.910;2023-03-01T17:12:48;4.70;99.90
30308;DHT22;17114;52.314;8.910;2023-03-01T17:15:16;4.60;99.90
30308;DHT22;17114;52.314;8.910;2023-03-01T17:17:43;4.50;99.90
30308;DHT22;17114;52.314;8.910;2023-03-01T17:20:10;4.40;99.90
30308;DHT22;17114;52.314;8.910;2023-03-01T17:22:37;4.40;99.90
30308;DHT22;17114;52.314;8.910;2023-03-01T17:25:07;4.30;99.90
30308;DHT22;17114;52.314;8.910;2023-03-01T17:27:36;4.20;99.90
30308;DHT22;17114;52.314;8.910;2023-03-01T17:30:05;4.10;99.90
30308;DHT22;17114;52.314;8.910;2023-03-01T17:32:32;4.10;99.90
30308;DHT22;17114;52.314;8.910;2023-03-01T17:34:59;3.90;99.90
30308;DHT22;17114;52.314;8.910;2023-03-01T17:37:26;4.00;99.90
30308;DHT22;17114;52.314;8.910;2023-03-01T17:39:53;3.70;99.90
30308;DHT22;17114;52.314;8.910;2023-03-01T17:42:20;3.70;99.90
30308;DHT22;17114;52.314;8.910;2023-03-01T17:44:47;3.60;99.90
30308;DHT22;17114;52.314;8.910;2023-03-01T17:47:14;3.60;99.90
30308;DHT22;17114;52.314;8.910;2023-03-01T17:49:41;3.60;99.90
30308;DHT22;17114;52.314;8.910;2023-03-01T17:52:08;3.60;99.90
30308;DHT22;17114;52.314;8.910;2023-03-01T17:54:35;3.40;99.90
30308;DHT22;17114;52.314;8.910;2023-03-01T17:57:02;3.50;99.90